sensor_id;sensor_type;location;lat;lon;timestamp;temperature;humidity
13328;DHT22;6733;51.044;3.746;2024-03-22T00:02:07;13.50;79.70
13328;DHT22;6733;51.044;3.746;2024-03-22T00:04:36;13.50;79.80
13328;DHT22;6733;51.044;3.746;2024-03-22T00:07:02;13.40;79.90
13328;DHT22;6733;51.044;3.746;2024-03-22T00:09:29;13.40;79.80
13328;DHT22;6733;51.044;3.746;2024-03-22T00:11:55;13.40;79.90
13328;DHT22;6733;51.044;3.746;2024-03-22T00:14:21;13.30;79.90
13328;DHT22;6733;51.044;3.746;2024-03-22T00:16:47;13.30;79.80
13328;DHT22;6733;51.044;3.746;2024-03-22T00:19:14;13.30;79.60
13328;DHT22;6733;51.044;3.746;2024-03-22T00:21:40;13.20;79.60
13328;DHT22;6733;51.044;3.746;2024-03-22T00:24:06;13.20;79.70
13328;DHT22;6733;51.044;3.746;2024-03-22T00:26:33;13.20;79.70
13328;DHT22;6733;51.044;3.746;2024-03-22T00:28:59;13.20;79.40
13328;DHT22;6733;51.044;3.746;2024-03-22T00:31:25;13.10;79.30
13328;DHT22;6733;51.044;3.746;2024-03-22T00:33:52;13.00;79.30
13328;DHT22;6733;51.044;3.746;2024-03-22T00:36:18;13.00;79.30
13328;DHT22;6733;51.044;3.746;2024-03-22T00:38:44;13.00;79.10
13328;DHT22;6733;51.044;3.746;2024-03-22T00:41:10;13.00;78.90
13328;DHT22;6733;51.044;3.746;2024-03-22T00:43:37;13.00;79.10
13328;DHT22;6733;51.044;3.746;2024-03-22T00:46:03;12.90;79.20
13328;DHT22;6733;51.044;3.746;2024-03-22T00:48:29;12.90;79.30
13328;DHT22;6733;51.044;3.746;2024-03-22T00:50:55;12.90;79.30
13328;DHT22;6733;51.044;3.746;2024-03-22T00:53:22;12.90;79.30
13328;DHT22;6733;51.044;3.746;2024-03-22T00:55:48;12.80;79.50
13328;DHT22;6733;51.044;3.746;2024-03-22T00:58:18;12.70;79.70
13328;DHT22;6733;51.044;3.746;2024-03-22T01:00:45;12.70;79.80
13328;DHT22;6733;51.044;3.746;2024-03-22T01:03:11;12.60;80.10
13328;DHT22;6733;51.044;3.746;2024-03-22T01:05:37;12.50;80.40
13328;DHT22;6733;51.044;3.746;2024-03-22T01:08:04;12.50;80.50
13328;DHT22;6733;51.044;3.746;2024-03-22T01:10:30;12.40;80.90
13328;DHT22;6733;51.044;3.746;2024-03-22T01:12:57;12.30;81.20
13328;DHT22;6733;51.044;3.746;2024-03-22T01:15:23;12.30;81.40
13328;DHT22;6733;51.044;3.746;2024-03-22T01:17:49;12.20;81.70
13328;DHT22;6733;51.044;3.746;2024-03-22T01:20:15;12.20;81.90
13328;DHT22;6733;51.044;3.746;2024-03-22T01:22:41;12.10;82.20
13328;DHT22;6733;51.044;3.746;2024-03-22T01:25:07;12.10;82.40
13328;DHT22;6733;51.044;3.746;2024-03-22T01:27:35;12.10;82.40
13328;DHT22;6733;51.044;3.746;2024-03-22T01:30:02;12.20;82.30
13328;DHT22;6733;51.044;3.746;2024-03-22T01:32:28;12.10;82.40
13328;DHT22;6733;51.044;3.746;2024-03-22T01:34:55;12.10;82.70
13328;DHT22;6733;51.044;3.746;2024-03-22T01:37:21;12.00;83.00
13328;DHT22;6733;51.044;3.746;2024-03-22T01:39:47;12.00;83.10
13328;DHT22;6733;51.044;3.746;2024-03-22T01:42:13;12.00;83.20
13328;DHT22;6733;51.044;3.746;2024-03-22T01:44:39;11.90;83.20
13328;DHT22;6733;51.044;3.746;2024-03-22T01:47:05;11.90;83.30
13328;DHT22;6733;51.044;3.746;2024-03-22T01:49:32;11.80;83.50
13328;DHT22;6733;51.044;3.746;2024-03-22T01:51:59;11.80;83.60
13328;DHT22;6733;51.044;3.746;2024-03-22T01:54:25;11.80;83.70
13328;DHT22;6733;51.044;3.746;2024-03-22T01:56:51;11.70;84.00
13328;DHT22;6733;51.044;3.746;2024-03-22T01:59:18;11.70;84.20
13328;DHT22;6733;51.044;3.746;2024-03-22T02:01:45;11.60;84.40
13328;DHT22;6733;51.044;3.746;2024-03-22T02:04:11;11.60;84.40
13328;DHT22;6733;51.044;3.746;2024-03-22T02:06:37;11.60;84.60
13328;DHT22;6733;51.044;3.746;2024-03-22T02:09:03;11.50;84.70
13328;DHT22;6733;51.044;3.746;2024-03-22T02:11:36;11.50;84.80
13328;DHT22;6733;51.044;3.746;2024-03-22T02:14:05;11.50;84.90
13328;DHT22;6733;51.044;3.746;2024-03-22T02:16:31;11.50;84.90
13328;DHT22;6733;51.044;3.746;2024-03-22T02:18:57;11.50;85.00
13328;DHT22;6733;51.044;3.746;2024-03-22T02:21:23;11.50;85.00
13328;DHT22;6733;51.044;3.746;2024-03-22T02:23:50;11.50;85.00
13328;DHT22;6733;51.044;3.746;2024-03-22T02:26:16;11.50;85.10
13328;DHT22;6733;51.044;3.746;2024-03-22T02:28:42;11.50;84.90
13328;DHT22;6733;51.044;3.746;2024-03-22T02:31:08;11.50;84.90
13328;DHT22;6733;51.044;3.746;2024-03-22T02:33:34;11.40;85.00
13328;DHT22;6733;51.044;3.746;2024-03-22T02:36:26;11.40;85.20
13328;DHT22;6733;51.044;3.746;2024-03-22T02:39:17;11.40;85.00
13328;DHT22;6733;51.044;3.746;2024-03-22T02:42:08;11.40;85.00
13328;DHT22;6733;51.044;3.746;2024-03-22T02:45:00;11.50;85.00
13328;DHT22;6733;51.044;3.746;2024-03-22T02:47:50;11.50;84.60
13328;DHT22;6733;51.044;3.746;2024-03-22T02:50:42;11.50;84.10
13328;DHT22;6733;51.044;3.746;2024-03-22T02:53:32;11.40;84.20
13328;DHT22;6733;51.044;3.746;2024-03-22T02:56:23;11.50;84.30
13328;DHT22;6733;51.044;3.746;2024-03-22T02:59:14;11.30;84.00
13328;DHT22;6733;51.044;3.746;2024-03-22T03:01:40;11.30;84.30
13328;DHT22;6733;51.044;3.746;2024-03-22T03:04:06;11.20;84.50
13328;DHT22;6733;51.044;3.746;2024-03-22T03:06:33;11.20;84.70
13328;DHT22;6733;51.044;3.746;2024-03-22T03:08:59;11.20;84.80
13328;DHT22;6733;51.044;3.746;2024-03-22T03:11:25;11.20;84.90
13328;DHT22;6733;51.044;3.746;2024-03-22T03:13:51;11.10;85.00
13328;DHT22;6733;51.044;3.746;2024-03-22T03:16:18;11.20;85.10
13328;DHT22;6733;51.044;3.746;2024-03-22T03:18:44;11.20;85.00
13328;DHT22;6733;51.044;3.746;2024-03-22T03:21:10;11.30;84.60
13328;DHT22;6733;51.044;3.746;2024-03-22T03:23:36;11.30;84.60
13328;DHT22;6733;51.044;3.746;2024-03-22T03:26:02;11.30;84.60
13328;DHT22;6733;51.044;3.746;2024-03-22T03:28:28;11.30;84.50
13328;DHT22;6733;51.044;3.746;2024-03-22T03:30:55;11.30;84.60
13328;DHT22;6733;51.044;3.746;2024-03-22T03:33:21;11.30;84.40
13328;DHT22;6733;51.044;3.746;2024-03-22T03:35:47;11.40;84.30
13328;DHT22;6733;51.044;3.746;2024-03-22T03:38:13;11.40;84.00
13328;DHT22;6733;51.044;3.746;2024-03-22T03:40:39;11.50;83.80
13328;DHT22;6733;51.044;3.746;2024-03-22T03:43:05;11.50;83.60
13328;DHT22;6733;51.044;3.746;2024-03-22T03:45:38;11.50;83.70
13328;DHT22;6733;51.044;3.746;2024-03-22T03:48:04;11.50;83.80
13328;DHT22;6733;51.044;3.746;2024-03-22T03:50:30;11.50;83.80
13328;DHT22;6733;51.044;3.746;2024-03-22T03:52:56;11.50;83.80
13328;DHT22;6733;51.044;3.746;2024-03-22T03:55:23;11.50;83.80
13328;DHT22;6733;51.044;3.746;2024-03-22T03:57:52;11.50;83.90
13328;DHT22;6733;51.044;3.746;2024-03-22T04:00:20;11.40;84.10
13328;DHT22;6733;51.044;3.746;2024-03-22T04:02:48;11.40;84.10
13328;DHT22;6733;51.044;3.746;2024-03-22T04:05:14;11.40;84.00
13328;DHT22;6733;51.044;3.746;2024-03-22T04:07:40;11.50;83.90
13328;DHT22;6733;51.044;3.746;2024-03-22T04:10:08;11.50;83.90
13328;DHT22;6733;51.044;3.746;2024-03-22T04:12:35;11.50;83.80
13328;DHT22;6733;51.044;3.746;2024-03-22T04:15:01;11.60;83.70
13328;DHT22;6733;51.044;3.746;2024-03-22T04:17:27;11.50;83.90
13328;DHT22;6733;51.044;3.746;2024-03-22T04:19:53;11.50;84.00
13328;DHT22;6733;51.044;3.746;2024-03-22T04:22:19;11.50;84.20
13328;DHT22;6733;51.044;3.746;2024-03-22T04:24:47;11.50;84.40
13328;DHT22;6733;51.044;3.746;2024-03-22T04:27:13;11.50;84.40
13328;DHT22;6733;51.044;3.746;2024-03-22T04:29:39;11.50;84.30
13328;DHT22;6733;51.044;3.746;2024-03-22T04:32:06;11.50;84.40
13328;DHT22;6733;51.044;3.746;2024-03-22T04:34:32;11.50;84.40
13328;DHT22;6733;51.044;3.746;2024-03-22T04:36:58;11.50;84.40
13328;DHT22;6733;51.044;3.746;2024-03-22T04:39:24;11.60;84.40
13328;DHT22;6733;51.044;3.746;2024-03-22T04:41:50;11.50;84.30
13328;DHT22;6733;51.044;3.746;2024-03-22T04:44:16;11.50;84.50
13328;DHT22;6733;51.044;3.746;2024-03-22T04:46:42;11.50;84.60
13328;DHT22;6733;51.044;3.746;2024-03-22T04:49:10;11.50;84.70
13328;DHT22;6733;51.044;3.746;2024-03-22T04:51:36;11.50;84.70
13328;DHT22;6733;51.044;3.746;2024-03-22T04:54:02;11.40;84.80
13328;DHT22;6733;51.044;3.746;2024-03-22T04:56:28;11.30;84.90
13328;DHT22;6733;51.044;3.746;2024-03-22T04:58:54;11.30;85.10
13328;DHT22;6733;51.044;3.746;2024-03-22T05:01:21;11.30;85.40
13328;DHT22;6733;51.044;3.746;2024-03-22T05:03:49;11.20;85.70
13328;DHT22;6733;51.044;3.746;2024-03-22T05:06:15;11.30;85.70
13328;DHT22;6733;51.044;3.746;2024-03-22T05:08:42;11.40;85.50
13328;DHT22;6733;51.044;3.746;2024-03-22T05:11:08;11.40;85.10
13328;DHT22;6733;51.044;3.746;2024-03-22T05:13:34;11.40;85.20
13328;DHT22;6733;51.044;3.746;2024-03-22T05:16:00;11.40;85.20
13328;DHT22;6733;51.044;3.746;2024-03-22T05:18:27;11.40;85.10
13328;DHT22;6733;51.044;3.746;2024-03-22T05:20:53;11.30;84.90
13328;DHT22;6733;51.044;3.746;2024-03-22T05:23:19;11.40;84.90
13328;DHT22;6733;51.044;3.746;2024-03-22T05:25:45;11.40;84.80
13328;DHT22;6733;51.044;3.746;2024-03-22T05:28:11;11.30;85.10
13328;DHT22;6733;51.044;3.746;2024-03-22T05:30:37;11.30;85.30
13328;DHT22;6733;51.044;3.746;2024-03-22T05:33:04;11.30;85.20
13328;DHT22;6733;51.044;3.746;2024-03-22T05:35:30;11.20;85.40
13328;DHT22;6733;51.044;3.746;2024-03-22T05:37:56;11.10;85.60
13328;DHT22;6733;51.044;3.746;2024-03-22T05:40:22;11.10;85.50
13328;DHT22;6733;51.044;3.746;2024-03-22T05:42:49;11.10;85.50
13328;DHT22;6733;51.044;3.746;2024-03-22T05:45:15;11.00;85.50
13328;DHT22;6733;51.044;3.746;2024-03-22T05:47:41;11.00;85.50
13328;DHT22;6733;51.044;3.746;2024-03-22T05:50:08;11.00;85.40
13328;DHT22;6733;51.044;3.746;2024-03-22T05:52:35;11.00;85.30
13328;DHT22;6733;51.044;3.746;2024-03-22T05:55:01;11.10;85.30
13328;DHT22;6733;51.044;3.746;2024-03-22T05:57:28;11.00;84.60
13328;DHT22;6733;51.044;3.746;2024-03-22T05:59:54;10.90;84.90
13328;DHT22;6733;51.044;3.746;2024-03-22T06:02:21;11.00;84.80
13328;DHT22;6733;51.044;3.746;2024-03-22T06:04:47;11.00;84.60
13328;DHT22;6733;51.044;3.746;2024-03-22T06:07:13;11.10;84.40
13328;DHT22;6733;51.044;3.746;2024-03-22T06:09:42;11.10;84.10
13328;DHT22;6733;51.044;3.746;2024-03-22T06:12:18;11.10;84.00
13328;DHT22;6733;51.044;3.746;2024-03-22T06:14:44;11.10;84.00
13328;DHT22;6733;51.044;3.746;2024-03-22T06:17:12;11.20;83.70
13328;DHT22;6733;51.044;3.746;2024-03-22T06:19:40;11.30;83.20
13328;DHT22;6733;51.044;3.746;2024-03-22T06:22:06;11.20;83.10
13328;DHT22;6733;51.044;3.746;2024-03-22T06:24:32;11.20;82.50
13328;DHT22;6733;51.044;3.746;2024-03-22T06:26:58;11.20;82.60
13328;DHT22;6733;51.044;3.746;2024-03-22T06:29:24;11.20;82.60
13328;DHT22;6733;51.044;3.746;2024-03-22T06:31:50;11.20;82.20
13328;DHT22;6733;51.044;3.746;2024-03-22T06:34:18;11.30;82.00
13328;DHT22;6733;51.044;3.746;2024-03-22T06:36:44;11.20;82.20
13328;DHT22;6733;51.044;3.746;2024-03-22T06:39:10;11.30;82.00
13328;DHT22;6733;51.044;3.746;2024-03-22T06:41:37;11.30;81.90
13328;DHT22;6733;51.044;3.746;2024-03-22T06:44:03;11.40;81.60
13328;DHT22;6733;51.044;3.746;2024-03-22T06:46:30;11.30;81.60
13328;DHT22;6733;51.044;3.746;2024-03-22T06:48:57;11.40;81.50
13328;DHT22;6733;51.044;3.746;2024-03-22T06:51:23;11.50;81.30
13328;DHT22;6733;51.044;3.746;2024-03-22T06:53:49;11.50;81.30
13328;DHT22;6733;51.044;3.746;2024-03-22T06:56:17;11.50;80.90
13328;DHT22;6733;51.044;3.746;2024-03-22T06:58:44;11.50;81.00
13328;DHT22;6733;51.044;3.746;2024-03-22T07:01:10;11.50;80.90
13328;DHT22;6733;51.044;3.746;2024-03-22T07:03:36;11.50;80.80
13328;DHT22;6733;51.044;3.746;2024-03-22T07:06:02;11.40;81.10
13328;DHT22;6733;51.044;3.746;2024-03-22T07:08:29;11.40;81.00
13328;DHT22;6733;51.044;3.746;2024-03-22T07:10:55;11.50;81.10
13328;DHT22;6733;51.044;3.746;2024-03-22T07:13:21;11.60;80.60
13328;DHT22;6733;51.044;3.746;2024-03-22T07:15:48;11.60;80.50
13328;DHT22;6733;51.044;3.746;2024-03-22T07:18:15;11.70;80.30
13328;DHT22;6733;51.044;3.746;2024-03-22T07:20:42;11.60;80.00
13328;DHT22;6733;51.044;3.746;2024-03-22T07:23:08;11.70;80.20
13328;DHT22;6733;51.044;3.746;2024-03-22T07:25:35;11.80;80.10
13328;DHT22;6733;51.044;3.746;2024-03-22T07:28:01;11.90;79.40
13328;DHT22;6733;51.044;3.746;2024-03-22T07:30:27;12.00;79.10
13328;DHT22;6733;51.044;3.746;2024-03-22T07:32:54;12.10;79.00
13328;DHT22;6733;51.044;3.746;2024-03-22T07:35:20;12.00;78.80
13328;DHT22;6733;51.044;3.746;2024-03-22T07:37:46;12.00;78.70
13328;DHT22;6733;51.044;3.746;2024-03-22T07:40:12;12.00;78.70
13328;DHT22;6733;51.044;3.746;2024-03-22T07:42:38;12.10;78.70
13328;DHT22;6733;51.044;3.746;2024-03-22T07:45:05;12.10;78.50
13328;DHT22;6733;51.044;3.746;2024-03-22T07:47:31;12.20;78.30
13328;DHT22;6733;51.044;3.746;2024-03-22T07:49:58;12.10;78.30
13328;DHT22;6733;51.044;3.746;2024-03-22T07:52:24;12.20;78.20
13328;DHT22;6733;51.044;3.746;2024-03-22T07:54:50;12.30;77.90
13328;DHT22;6733;51.044;3.746;2024-03-22T07:57:16;12.40;77.90
13328;DHT22;6733;51.044;3.746;2024-03-22T07:59:42;12.50;77.50
13328;DHT22;6733;51.044;3.746;2024-03-22T08:02:10;12.50;77.00
13328;DHT22;6733;51.044;3.746;2024-03-22T08:04:36;12.70;76.70
13328;DHT22;6733;51.044;3.746;2024-03-22T08:07:03;12.70;76.30
13328;DHT22;6733;51.044;3.746;2024-03-22T08:09:29;12.70;76.00
13328;DHT22;6733;51.044;3.746;2024-03-22T08:11:55;12.70;76.20
13328;DHT22;6733;51.044;3.746;2024-03-22T08:14:21;12.80;75.70
13328;DHT22;6733;51.044;3.746;2024-03-22T08:16:47;12.90;75.50
13328;DHT22;6733;51.044;3.746;2024-03-22T08:19:13;13.00;75.20
13328;DHT22;6733;51.044;3.746;2024-03-22T08:21:40;13.10;74.60
13328;DHT22;6733;51.044;3.746;2024-03-22T08:24:06;13.20;74.40
13328;DHT22;6733;51.044;3.746;2024-03-22T08:26:32;13.30;73.70
13328;DHT22;6733;51.044;3.746;2024-03-22T08:28:58;13.40;72.70
13328;DHT22;6733;51.044;3.746;2024-03-22T08:31:25;13.40;72.00
13328;DHT22;6733;51.044;3.746;2024-03-22T08:33:54;13.40;72.50
13328;DHT22;6733;51.044;3.746;2024-03-22T08:36:22;13.40;72.50
13328;DHT22;6733;51.044;3.746;2024-03-22T08:38:49;13.60;72.00
13328;DHT22;6733;51.044;3.746;2024-03-22T08:41:16;13.70;71.50
13328;DHT22;6733;51.044;3.746;2024-03-22T08:43:42;13.60;70.90
13328;DHT22;6733;51.044;3.746;2024-03-22T08:46:08;13.50;71.20
13328;DHT22;6733;51.044;3.746;2024-03-22T08:48:34;13.20;72.00
13328;DHT22;6733;51.044;3.746;2024-03-22T08:51:01;13.10;72.10
13328;DHT22;6733;51.044;3.746;2024-03-22T08:53:27;13.10;72.50
13328;DHT22;6733;51.044;3.746;2024-03-22T08:55:54;13.20;72.40
13328;DHT22;6733;51.044;3.746;2024-03-22T08:58:20;13.30;72.10
13328;DHT22;6733;51.044;3.746;2024-03-22T09:00:46;13.40;71.50
13328;DHT22;6733;51.044;3.746;2024-03-22T09:03:12;13.30;71.40
13328;DHT22;6733;51.044;3.746;2024-03-22T09:05:41;13.30;71.70
13328;DHT22;6733;51.044;3.746;2024-03-22T09:08:07;13.40;71.30
13328;DHT22;6733;51.044;3.746;2024-03-22T09:10:33;13.40;71.00
13328;DHT22;6733;51.044;3.746;2024-03-22T09:12:59;13.50;70.70
13328;DHT22;6733;51.044;3.746;2024-03-22T09:15:25;13.30;70.70
13328;DHT22;6733;51.044;3.746;2024-03-22T09:17:52;13.10;71.70
13328;DHT22;6733;51.044;3.746;2024-03-22T09:20:18;13.00;72.00
13328;DHT22;6733;51.044;3.746;2024-03-22T09:22:45;13.10;72.20
13328;DHT22;6733;51.044;3.746;2024-03-22T09:25:11;13.20;71.90
13328;DHT22;6733;51.044;3.746;2024-03-22T09:27:37;13.20;71.60
13328;DHT22;6733;51.044;3.746;2024-03-22T09:30:05;13.20;71.50
13328;DHT22;6733;51.044;3.746;2024-03-22T09:32:31;13.40;71.40
13328;DHT22;6733;51.044;3.746;2024-03-22T09:34:57;13.50;70.90
13328;DHT22;6733;51.044;3.746;2024-03-22T09:37:23;13.70;70.40
13328;DHT22;6733;51.044;3.746;2024-03-22T09:39:49;13.80;70.00
13328;DHT22;6733;51.044;3.746;2024-03-22T09:42:17;13.70;69.30
13328;DHT22;6733;51.044;3.746;2024-03-22T09:44:47;13.60;69.30
13328;DHT22;6733;51.044;3.746;2024-03-22T09:47:18;13.60;69.60
13328;DHT22;6733;51.044;3.746;2024-03-22T09:49:44;13.60;69.30
13328;DHT22;6733;51.044;3.746;2024-03-22T09:52:13;13.40;69.50
13328;DHT22;6733;51.044;3.746;2024-03-22T09:54:45;13.40;69.80
13328;DHT22;6733;51.044;3.746;2024-03-22T09:57:15;13.40;70.20
13328;DHT22;6733;51.044;3.746;2024-03-22T09:59:45;13.60;70.20
13328;DHT22;6733;51.044;3.746;2024-03-22T10:02:12;13.70;69.30
13328;DHT22;6733;51.044;3.746;2024-03-22T10:04:41;13.60;69.40
13328;DHT22;6733;51.044;3.746;2024-03-22T10:07:08;13.50;69.70
13328;DHT22;6733;51.044;3.746;2024-03-22T10:09:36;13.50;69.90
13328;DHT22;6733;51.044;3.746;2024-03-22T10:12:03;13.40;70.30
13328;DHT22;6733;51.044;3.746;2024-03-22T10:14:30;13.30;70.40
13328;DHT22;6733;51.044;3.746;2024-03-22T10:16:57;13.30;70.70
13328;DHT22;6733;51.044;3.746;2024-03-22T10:19:24;13.30;70.80
13328;DHT22;6733;51.044;3.746;2024-03-22T10:22:03;13.30;70.90
13328;DHT22;6733;51.044;3.746;2024-03-22T10:24:30;13.40;71.00
13328;DHT22;6733;51.044;3.746;2024-03-22T10:26:56;13.40;70.90
13328;DHT22;6733;51.044;3.746;2024-03-22T10:29:22;13.40;70.90
13328;DHT22;6733;51.044;3.746;2024-03-22T10:31:54;13.30;70.90
13328;DHT22;6733;51.044;3.746;2024-03-22T10:34:24;13.30;71.20
13328;DHT22;6733;51.044;3.746;2024-03-22T10:36:51;13.40;71.10
13328;DHT22;6733;51.044;3.746;2024-03-22T10:39:18;13.50;70.70
13328;DHT22;6733;51.044;3.746;2024-03-22T10:41:47;13.60;70.40
13328;DHT22;6733;51.044;3.746;2024-03-22T10:44:16;13.60;70.20
13328;DHT22;6733;51.044;3.746;2024-03-22T10:46:47;13.60;69.90
13328;DHT22;6733;51.044;3.746;2024-03-22T10:49:18;13.60;70.10
13328;DHT22;6733;51.044;3.746;2024-03-22T10:51:51;13.60;69.80
13328;DHT22;6733;51.044;3.746;2024-03-22T10:54:25;13.60;69.90
13328;DHT22;6733;51.044;3.746;2024-03-22T10:56:51;13.70;70.00
13328;DHT22;6733;51.044;3.746;2024-03-22T10:59:19;13.70;70.20
13328;DHT22;6733;51.044;3.746;2024-03-22T11:02:04;13.80;70.10
13328;DHT22;6733;51.044;3.746;2024-03-22T11:04:33;13.90;70.10
13328;DHT22;6733;51.044;3.746;2024-03-22T11:07:00;14.00;70.00
13328;DHT22;6733;51.044;3.746;2024-03-22T11:09:27;14.00;69.90
13328;DHT22;6733;51.044;3.746;2024-03-22T11:11:54;14.10;69.80
13328;DHT22;6733;51.044;3.746;2024-03-22T11:14:21;14.10;69.70
13328;DHT22;6733;51.044;3.746;2024-03-22T11:16:47;14.10;69.70
13328;DHT22;6733;51.044;3.746;2024-03-22T11:19:14;14.00;70.10
13328;DHT22;6733;51.044;3.746;2024-03-22T11:21:40;13.90;70.70
13328;DHT22;6733;51.044;3.746;2024-03-22T11:24:06;14.00;70.80
13328;DHT22;6733;51.044;3.746;2024-03-22T11:26:33;14.10;70.50
13328;DHT22;6733;51.044;3.746;2024-03-22T11:28:59;14.10;70.30
13328;DHT22;6733;51.044;3.746;2024-03-22T11:31:27;14.20;70.00
13328;DHT22;6733;51.044;3.746;2024-03-22T11:33:54;14.30;69.90
13328;DHT22;6733;51.044;3.746;2024-03-22T11:36:21;14.50;69.60
13328;DHT22;6733;51.044;3.746;2024-03-22T11:38:48;14.50;69.00
13328;DHT22;6733;51.044;3.746;2024-03-22T11:41:34;14.50;69.20
13328;DHT22;6733;51.044;3.746;2024-03-22T11:44:01;14.40;69.30
13328;DHT22;6733;51.044;3.746;2024-03-22T11:46:28;14.20;69.90
13328;DHT22;6733;51.044;3.746;2024-03-22T11:48:54;14.20;70.10
13328;DHT22;6733;51.044;3.746;2024-03-22T11:51:21;14.10;70.40
13328;DHT22;6733;51.044;3.746;2024-03-22T11:53:53;14.20;70.40
13328;DHT22;6733;51.044;3.746;2024-03-22T11:56:22;14.20;70.20
13328;DHT22;6733;51.044;3.746;2024-03-22T11:58:49;14.20;70.50
13328;DHT22;6733;51.044;3.746;2024-03-22T12:01:15;14.10;71.00
13328;DHT22;6733;51.044;3.746;2024-03-22T12:03:45;14.00;71.70
13328;DHT22;6733;51.044;3.746;2024-03-22T12:06:13;14.00;71.90
13328;DHT22;6733;51.044;3.746;2024-03-22T12:08:40;14.00;72.10
13328;DHT22;6733;51.044;3.746;2024-03-22T12:11:10;14.00;72.30
13328;DHT22;6733;51.044;3.746;2024-03-22T12:13:38;14.00;72.50
13328;DHT22;6733;51.044;3.746;2024-03-22T12:16:04;14.00;72.60
13328;DHT22;6733;51.044;3.746;2024-03-22T12:18:31;14.00;73.10
13328;DHT22;6733;51.044;3.746;2024-03-22T12:20:58;13.90;73.80
13328;DHT22;6733;51.044;3.746;2024-03-22T12:23:24;13.90;74.40
13328;DHT22;6733;51.044;3.746;2024-03-22T12:25:51;13.70;75.10
13328;DHT22;6733;51.044;3.746;2024-03-22T12:28:18;13.60;76.00
13328;DHT22;6733;51.044;3.746;2024-03-22T12:30:44;13.60;76.50
13328;DHT22;6733;51.044;3.746;2024-03-22T12:33:11;13.60;76.90
13328;DHT22;6733;51.044;3.746;2024-03-22T12:35:39;13.60;76.90
13328;DHT22;6733;51.044;3.746;2024-03-22T12:38:06;13.50;77.80
13328;DHT22;6733;51.044;3.746;2024-03-22T12:40:34;13.40;78.00
13328;DHT22;6733;51.044;3.746;2024-03-22T12:43:00;13.20;78.60
13328;DHT22;6733;51.044;3.746;2024-03-22T12:45:26;13.20;78.90
13328;DHT22;6733;51.044;3.746;2024-03-22T12:47:52;13.20;78.80
13328;DHT22;6733;51.044;3.746;2024-03-22T12:50:19;13.10;79.10
13328;DHT22;6733;51.044;3.746;2024-03-22T12:52:45;13.10;79.80
13328;DHT22;6733;51.044;3.746;2024-03-22T12:55:11;13.10;79.90
13328;DHT22;6733;51.044;3.746;2024-03-22T12:57:37;13.10;80.30
13328;DHT22;6733;51.044;3.746;2024-03-22T13:00:06;13.20;79.90
13328;DHT22;6733;51.044;3.746;2024-03-22T13:02:39;13.30;79.90
13328;DHT22;6733;51.044;3.746;2024-03-22T13:05:07;13.30;80.20
13328;DHT22;6733;51.044;3.746;2024-03-22T13:07:33;13.40;80.40
13328;DHT22;6733;51.044;3.746;2024-03-22T13:10:00;13.40;80.50
13328;DHT22;6733;51.044;3.746;2024-03-22T13:12:27;13.40;80.20
13328;DHT22;6733;51.044;3.746;2024-03-22T13:14:54;13.40;80.20
13328;DHT22;6733;51.044;3.746;2024-03-22T13:17:20;13.40;80.40
13328;DHT22;6733;51.044;3.746;2024-03-22T13:19:47;13.30;80.80
13328;DHT22;6733;51.044;3.746;2024-03-22T13:22:13;13.30;81.00
13328;DHT22;6733;51.044;3.746;2024-03-22T13:24:47;13.30;82.30
13328;DHT22;6733;51.044;3.746;2024-03-22T13:27:13;13.40;81.80
13328;DHT22;6733;51.044;3.746;2024-03-22T13:29:40;13.40;81.50
13328;DHT22;6733;51.044;3.746;2024-03-22T13:32:06;13.40;81.50
13328;DHT22;6733;51.044;3.746;2024-03-22T13:34:35;13.50;81.40
13328;DHT22;6733;51.044;3.746;2024-03-22T13:37:01;13.50;80.70
13328;DHT22;6733;51.044;3.746;2024-03-22T13:39:27;13.60;80.90
13328;DHT22;6733;51.044;3.746;2024-03-22T13:41:56;13.70;80.80
13328;DHT22;6733;51.044;3.746;2024-03-22T13:44:23;13.60;80.10
13328;DHT22;6733;51.044;3.746;2024-03-22T13:46:50;13.60;80.60
13328;DHT22;6733;51.044;3.746;2024-03-22T13:49:17;13.50;80.50
13328;DHT22;6733;51.044;3.746;2024-03-22T13:51:44;13.40;80.60
13328;DHT22;6733;51.044;3.746;2024-03-22T13:54:12;13.40;81.00
13328;DHT22;6733;51.044;3.746;2024-03-22T13:56:38;13.40;81.10
13328;DHT22;6733;51.044;3.746;2024-03-22T13:59:04;13.30;81.30
13328;DHT22;6733;51.044;3.746;2024-03-22T14:01:32;13.40;81.50
13328;DHT22;6733;51.044;3.746;2024-03-22T14:03:58;13.40;81.50
13328;DHT22;6733;51.044;3.746;2024-03-22T14:06:24;13.40;81.30
13328;DHT22;6733;51.044;3.746;2024-03-22T14:08:50;13.30;81.30
13328;DHT22;6733;51.044;3.746;2024-03-22T14:11:20;13.30;81.60
13328;DHT22;6733;51.044;3.746;2024-03-22T14:13:46;13.30;82.10
13328;DHT22;6733;51.044;3.746;2024-03-22T14:16:12;13.20;81.70
13328;DHT22;6733;51.044;3.746;2024-03-22T14:18:38;13.20;82.00
13328;DHT22;6733;51.044;3.746;2024-03-22T14:21:05;13.20;82.30
13328;DHT22;6733;51.044;3.746;2024-03-22T14:23:32;13.20;82.00
13328;DHT22;6733;51.044;3.746;2024-03-22T14:25:59;13.00;82.30
13328;DHT22;6733;51.044;3.746;2024-03-22T14:28:25;12.90;82.80
13328;DHT22;6733;51.044;3.746;2024-03-22T14:30:51;12.90;83.40
13328;DHT22;6733;51.044;3.746;2024-03-22T14:33:18;12.90;83.60
13328;DHT22;6733;51.044;3.746;2024-03-22T14:35:47;12.80;83.60
13328;DHT22;6733;51.044;3.746;2024-03-22T14:38:14;12.80;83.80
13328;DHT22;6733;51.044;3.746;2024-03-22T14:40:40;12.70;83.70
13328;DHT22;6733;51.044;3.746;2024-03-22T14:43:07;12.70;84.40
13328;DHT22;6733;51.044;3.746;2024-03-22T14:45:33;12.60;84.70
13328;DHT22;6733;51.044;3.746;2024-03-22T14:47:59;12.60;84.70
13328;DHT22;6733;51.044;3.746;2024-03-22T14:50:25;12.70;84.80
13328;DHT22;6733;51.044;3.746;2024-03-22T14:52:51;12.70;85.00
13328;DHT22;6733;51.044;3.746;2024-03-22T14:55:17;12.70;84.60
13328;DHT22;6733;51.044;3.746;2024-03-22T14:57:44;12.60;84.80
13328;DHT22;6733;51.044;3.746;2024-03-22T15:00:10;12.60;85.00
13328;DHT22;6733;51.044;3.746;2024-03-22T15:02:38;12.60;85.20
13328;DHT22;6733;51.044;3.746;2024-03-22T15:05:05;12.60;85.60
13328;DHT22;6733;51.044;3.746;2024-03-22T15:07:31;12.50;86.00
13328;DHT22;6733;51.044;3.746;2024-03-22T15:09:57;12.60;86.30
13328;DHT22;6733;51.044;3.746;2024-03-22T15:12:23;12.60;86.10
13328;DHT22;6733;51.044;3.746;2024-03-22T15:14:53;12.70;86.30
13328;DHT22;6733;51.044;3.746;2024-03-22T15:17:20;12.70;86.10
13328;DHT22;6733;51.044;3.746;2024-03-22T15:19:51;12.70;85.60
13328;DHT22;6733;51.044;3.746;2024-03-22T15:22:18;12.70;85.70
13328;DHT22;6733;51.044;3.746;2024-03-22T15:24:51;12.70;85.60
13328;DHT22;6733;51.044;3.746;2024-03-22T15:27:19;12.70;85.70
13328;DHT22;6733;51.044;3.746;2024-03-22T15:29:45;12.70;85.50
13328;DHT22;6733;51.044;3.746;2024-03-22T15:32:11;12.70;86.00
13328;DHT22;6733;51.044;3.746;2024-03-22T15:34:37;12.70;86.10
13328;DHT22;6733;51.044;3.746;2024-03-22T15:37:04;12.70;85.80
13328;DHT22;6733;51.044;3.746;2024-03-22T15:39:30;12.70;85.80
13328;DHT22;6733;51.044;3.746;2024-03-22T15:41:56;12.70;85.60
13328;DHT22;6733;51.044;3.746;2024-03-22T15:44:22;12.70;85.90
13328;DHT22;6733;51.044;3.746;2024-03-22T15:46:49;12.60;86.10